createdAt,value
2022-08-05T00:00:00.567Z,0
2022-08-05T00:05:00.208Z,0
2022-08-05T00:10:00.177Z,0
2022-08-05T00:15:00.193Z,0
2022-08-05T00:20:02.661Z,0
2022-08-05T00:25:01.175Z,0
2022-08-05T00:30:00.496Z,0
2022-08-05T00:35:06.230Z,0
2022-08-05T00:40:00.315Z,0
2022-08-05T00:45:00.222Z,0
2022-08-05T00:50:00.178Z,0
2022-08-05T00:55:00.186Z,0
2022-08-05T01:00:00.213Z,0
2022-08-05T01:05:00.156Z,0
2022-08-05T01:10:00.208Z,0
2022-08-05T01:15:00.177Z,0
2022-08-05T01:20:02.978Z,0
2022-08-05T01:25:00.186Z,0
2022-08-05T01:30:00.163Z,0
2022-08-05T01:35:00.182Z,0
2022-08-05T01:40:00.257Z,0
2022-08-05T01:45:00.176Z,0
2022-08-05T01:50:02.742Z,0
2022-08-05T01:55:00.455Z,0
2022-08-05T02:00:00.236Z,0
2022-08-05T02:05:00.168Z,0
2022-08-05T02:15:00.223Z,0
2022-08-05T02:25:00.397Z,0
2022-08-05T02:30:00.938Z,0
2022-08-05T02:35:02.144Z,0
2022-08-05T02:40:00.210Z,0
2022-08-05T02:45:00.219Z,0
2022-08-05T02:50:00.184Z,0
2022-08-05T02:55:01.842Z,0
2022-08-05T03:00:00.285Z,0
2022-08-05T03:05:00.191Z,0
2022-08-05T03:10:00.227Z,0
2022-08-05T03:15:00.186Z,0
2022-08-05T03:20:00.190Z,0
2022-08-05T03:25:11.581Z,2
2022-08-05T03:30:07.331Z,3
2022-08-05T03:40:01.773Z,6
2022-08-05T03:45:01.796Z,9
2022-08-05T03:50:00.232Z,13
2022-08-05T03:56:01.369Z,20
2022-08-05T04:00:00.324Z,44
2022-08-05T04:05:00.318Z,72
2022-08-05T04:10:03.108Z,91
2022-08-05T04:15:00.200Z,131
2022-08-05T04:20:00.194Z,147
2022-08-05T04:25:00.201Z,168
2022-08-05T04:30:00.226Z,195
2022-08-05T04:35:00.214Z,355
2022-08-05T04:40:00.194Z,448
2022-08-05T04:45:00.929Z,568
2022-08-05T04:50:01.848Z,720
2022-08-05T04:55:00.179Z,912
2022-08-05T05:00:00.393Z,1160
2022-08-05T05:05:01.781Z,1345
2022-08-05T05:10:02.276Z,1470
2022-08-05T05:15:03.701Z,1470
2022-08-05T05:20:00.239Z,1470
2022-08-05T05:25:01.192Z,1470
2022-08-05T05:30:04.327Z,1652
2022-08-05T05:35:00.207Z,1652
2022-08-05T05:40:00.216Z,2102
2022-08-05T05:45:00.217Z,2102
2022-08-05T05:50:01.731Z,2678
2022-08-05T05:55:00.228Z,2042
2022-08-05T06:00:00.282Z,2134
2022-08-05T06:05:00.320Z,2134
2022-08-05T06:10:04.766Z,3873
2022-08-05T06:20:00.312Z,4917
2022-08-05T06:25:00.203Z,2663
2022-08-05T06:30:04.338Z,4393
2022-08-05T06:35:05.979Z,4393
2022-08-05T06:40:00.228Z,4776
2022-08-05T06:45:00.191Z,4942
2022-08-05T06:50:04.968Z,5562
2022-08-05T06:55:00.296Z,6263
2022-08-05T07:00:00.301Z,6263
2022-08-05T07:05:00.233Z,6263
2022-08-05T07:10:03.302Z,6263
2022-08-05T07:15:00.217Z,5385
2022-08-05T07:25:23.908Z,6245
2022-08-05T07:30:22.849Z,7923
2022-08-05T07:35:00.203Z,9669
2022-08-05T07:40:04.362Z,9669
2022-08-05T07:45:00.210Z,8610
2022-08-05T07:50:00.215Z,10158
2022-08-05T07:55:00.206Z,9028
2022-08-05T08:00:00.241Z,11639
2022-08-05T08:05:00.423Z,19231
2022-08-05T08:10:00.246Z,18858
2022-08-05T08:15:02.014Z,24808
2022-08-05T08:20:22.115Z,16003
2022-08-05T08:25:02.787Z,31608
2022-08-05T08:30:05.855Z,9741
2022-08-05T08:35:00.233Z,6827
2022-08-05T08:40:01.127Z,4680
2022-08-05T08:45:23.609Z,6230
2022-08-05T08:50:05.666Z,35253
2022-08-05T08:55:00.249Z,16535
2022-08-05T09:00:00.283Z,40420
2022-08-05T09:05:17.823Z,10644
2022-08-05T09:10:00.462Z,41534
2022-08-05T09:15:05.657Z,19351
2022-08-05T09:20:02.631Z,8966
2022-08-05T09:25:00.246Z,13750
2022-08-05T09:30:04.651Z,42452
2022-08-05T09:35:00.315Z,46196
2022-08-05T09:40:00.351Z,46126
2022-08-05T09:45:17.961Z,47534
2022-08-05T09:50:01.450Z,47534
2022-08-05T09:55:00.252Z,53420
2022-08-05T10:00:03.635Z,55297
2022-08-05T10:05:00.309Z,59951
2022-08-05T10:10:14.297Z,31275
2022-08-05T10:15:01.438Z,21827
2022-08-05T10:20:04.163Z,21827
2022-08-05T10:25:00.287Z,21827
2022-08-05T10:30:41.227Z,24524
2022-08-05T10:35:00.867Z,26761
2022-08-05T10:40:17.386Z,72277
2022-08-05T10:45:00.245Z,72277
2022-08-05T10:50:31.835Z,61987
2022-08-05T10:55:00.306Z,65313
2022-08-05T11:00:02.570Z,65313
2022-08-05T11:05:00.354Z,66543
2022-08-05T11:10:09.464Z,66543
2022-08-05T11:15:11.451Z,30005
2022-08-05T11:20:16.744Z,55989
2022-08-05T11:25:16.424Z,81677
2022-08-05T11:35:00.562Z,23030
2022-08-05T11:40:03.472Z,32434
2022-08-05T11:45:00.521Z,71220
2022-08-05T11:50:00.307Z,16757
2022-08-05T11:55:07.708Z,72377
2022-08-05T12:00:00.455Z,22131
2022-08-05T12:05:00.559Z,17555
2022-08-05T12:10:05.970Z,25562
2022-08-05T12:15:00.517Z,47044
2022-08-05T12:20:26.158Z,39021
2022-08-05T12:25:00.764Z,27359
2022-08-05T12:30:00.300Z,18976
2022-08-05T12:35:00.272Z,21672
2022-08-05T12:40:03.573Z,36576
2022-08-05T12:45:00.341Z,31681
2022-08-05T12:50:03.315Z,19382
2022-08-05T12:55:00.809Z,20807
2022-08-05T13:01:56.664Z,30662
2022-08-05T13:05:00.315Z,81021
2022-08-05T13:10:00.212Z,50617
2022-08-05T13:15:07.445Z,31805
2022-08-05T13:20:00.498Z,38459
2022-08-05T13:25:05.893Z,31769
2022-08-05T13:30:32.898Z,72194
2022-08-05T13:35:00.317Z,72694
2022-08-05T13:40:15.867Z,63067
2022-08-05T13:45:00.327Z,24649
2022-08-05T13:50:00.533Z,23507
2022-08-05T13:55:01.018Z,26491
2022-08-05T14:00:02.467Z,28029
2022-08-05T14:05:00.886Z,33105
2022-08-05T14:10:00.459Z,66390
2022-08-05T14:15:00.283Z,29765
2022-08-05T14:20:04.484Z,67375
2022-08-05T14:25:00.416Z,29737
2022-08-05T14:30:00.243Z,17636
2022-08-05T14:35:00.305Z,15653
2022-08-05T14:40:00.485Z,12139
2022-08-05T14:45:00.240Z,15445
2022-08-05T14:50:03.261Z,21923
2022-08-05T14:55:00.314Z,14057
2022-08-05T15:00:00.388Z,9526
2022-08-05T15:05:00.545Z,16669
2022-08-05T15:10:01.388Z,15711
2022-08-05T15:15:00.275Z,41649
2022-08-05T15:20:00.269Z,50003
2022-08-05T15:25:00.306Z,38806
2022-08-05T15:30:00.316Z,7602
2022-08-05T15:35:04.113Z,8578
2022-08-05T15:40:59.594Z,31557
2022-08-05T15:45:00.311Z,9469
2022-08-05T15:50:00.493Z,7480
2022-08-05T15:55:00.317Z,32546
2022-08-05T16:00:02.468Z,32546
2022-08-05T16:05:00.509Z,20740
2022-08-05T16:10:00.271Z,8519
2022-08-05T16:15:00.314Z,6696
2022-08-05T16:20:05.075Z,25775
2022-08-05T16:25:00.677Z,9243
2022-08-05T16:30:00.335Z,7209
2022-08-05T16:35:00.321Z,19284
2022-08-05T16:40:05.960Z,21878
2022-08-05T16:45:00.358Z,6090
2022-08-05T16:50:00.309Z,9221
2022-08-05T16:55:00.238Z,4920
2022-08-05T17:00:07.411Z,13887
2022-08-05T17:05:00.341Z,11161
2022-08-05T17:10:00.444Z,11161
2022-08-05T17:15:00.438Z,9616
2022-08-05T17:20:00.297Z,8566
2022-08-05T17:25:00.408Z,6949
2022-08-05T17:30:02.563Z,6780
2022-08-05T17:35:00.297Z,6030
2022-08-05T17:40:00.697Z,5370
2022-08-05T17:45:00.411Z,4783
2022-08-05T17:50:04.328Z,4354
2022-08-05T17:55:00.335Z,4261
2022-08-05T18:00:03.518Z,3369
2022-08-05T18:05:00.525Z,2998
2022-08-05T18:10:02.175Z,2358
2022-08-05T18:15:00.233Z,2051
2022-08-05T18:20:00.229Z,2051
2022-08-05T18:25:00.205Z,2051
2022-08-05T18:30:00.349Z,2051
2022-08-05T18:35:00.223Z,2055
2022-08-05T18:40:33.781Z,3129
2022-08-05T18:45:00.269Z,1627
2022-08-05T18:50:00.474Z,1135
2022-08-05T18:55:00.204Z,898
2022-08-05T19:00:03.192Z,709
2022-08-05T19:05:02.137Z,561
2022-08-05T19:10:00.239Z,444
2022-08-05T19:15:02.631Z,288
2022-08-05T19:20:00.206Z,191
2022-08-05T19:25:00.223Z,200
2022-08-05T19:30:00.211Z,122
2022-08-05T19:35:00.202Z,62
2022-08-05T19:40:00.438Z,36
2022-08-05T19:45:00.263Z,18
2022-08-05T19:50:00.243Z,10
2022-08-05T19:55:00.374Z,5
2022-08-05T20:00:04.221Z,4
2022-08-05T20:05:00.395Z,2
2022-08-05T20:10:00.220Z,2
2022-08-05T20:15:00.235Z,0
2022-08-05T20:20:00.240Z,0
2022-08-05T20:25:00.260Z,0
2022-08-05T20:30:00.234Z,0
2022-08-05T20:35:00.218Z,0
2022-08-05T20:40:00.423Z,0
2022-08-05T20:45:00.605Z,0
2022-08-05T20:50:00.210Z,0
2022-08-05T20:55:56.263Z,0
2022-08-05T21:00:19.846Z,0
2022-08-05T21:05:00.929Z,0
2022-08-05T21:10:00.238Z,0
2022-08-05T21:15:00.197Z,0
2022-08-05T21:20:04.304Z,0
2022-08-05T21:25:00.211Z,0
2022-08-05T21:30:01.815Z,0
2022-08-05T21:35:17.573Z,0
2022-08-05T21:40:00.193Z,0
2022-08-05T21:45:00.199Z,0
2022-08-05T21:50:01.509Z,0
2022-08-05T21:55:06.201Z,0
2022-08-05T22:00:05.017Z,0
2022-08-05T22:05:00.180Z,0
2022-08-05T22:10:00.203Z,0
2022-08-05T22:15:00.193Z,0
2022-08-05T22:20:13.929Z,0
2022-08-05T22:25:00.215Z,0
2022-08-05T22:30:00.187Z,0
2022-08-05T22:35:00.189Z,0
2022-08-05T22:40:00.357Z,0
2022-08-05T22:45:00.209Z,0
2022-08-05T22:50:20.557Z,0
2022-08-05T22:55:00.216Z,0
2022-08-05T23:00:00.229Z,0
2022-08-05T23:05:01.766Z,0
2022-08-05T23:10:01.944Z,0
2022-08-05T23:15:00.233Z,0
2022-08-05T23:20:00.388Z,0
2022-08-05T23:25:00.199Z,0
2022-08-05T23:30:00.206Z,0
2022-08-05T23:35:00.201Z,0
2022-08-05T23:40:00.305Z,0
2022-08-05T23:45:00.245Z,0
2022-08-05T23:50:00.192Z,0
2022-08-05T23:55:00.215Z,0
